createdAt,value
2023-11-07T00:01:30.298Z,99962.06
2023-11-07T00:03:59.900Z,99965.79
2023-11-07T00:06:27.562Z,99967.50
2023-11-07T00:08:55.192Z,99970.52
2023-11-07T00:11:22.841Z,99970.75
2023-11-07T00:13:51.505Z,99975.90
2023-11-07T00:16:19.258Z,99977.45
2023-11-07T00:18:48.581Z,99977.98
2023-11-07T00:21:16.322Z,99974.40
2023-11-07T00:23:43.940Z,99974.48
2023-11-07T00:26:11.682Z,99970.40
2023-11-07T00:28:42.551Z,99972.56
2023-11-07T00:31:10.183Z,99976.27
2023-11-07T00:33:38.450Z,99982.36
2023-11-07T00:36:07.186Z,99980.27
2023-11-07T00:38:34.878Z,99990.38
2023-11-07T00:41:02.613Z,99992.12
2023-11-07T00:43:30.486Z,99993.52
2023-11-07T00:45:58.435Z,99997.40
2023-11-07T00:48:26.280Z,99997.82
2023-11-07T00:50:53.936Z,100004.79
2023-11-07T00:53:21.943Z,100005.95
2023-11-07T00:55:49.693Z,100008.44
2023-11-07T00:58:17.520Z,100010.17
2023-11-07T01:00:45.265Z,100016.23
2023-11-07T01:03:13.010Z,100013.63
2023-11-07T01:05:41.552Z,100017.96
2023-11-07T01:08:09.632Z,100019.46
2023-11-07T01:10:37.221Z,100026.02
2023-11-07T01:13:05.126Z,100030.09
2023-11-07T01:15:32.876Z,100034.02
2023-11-07T01:18:00.733Z,100035.63
2023-11-07T01:20:28.554Z,100036.84
2023-11-07T01:22:56.589Z,100039.05
2023-11-07T01:25:24.306Z,100047.78
2023-11-07T01:27:53.752Z,100056.26
2023-11-07T01:30:22.110Z,100055.98
2023-11-07T01:32:51.440Z,100061.04
2023-11-07T01:35:19.377Z,100065.42
2023-11-07T01:37:47.249Z,100063.52
2023-11-07T01:40:15.119Z,100066.14
2023-11-07T01:42:47.150Z,100068.47
2023-11-07T01:45:16.096Z,100071.95
2023-11-07T01:47:47.083Z,100075.38
2023-11-07T01:50:15.842Z,100076.94
2023-11-07T01:52:44.020Z,100081.56
2023-11-07T01:55:16.808Z,100086.98
2023-11-07T01:57:47.723Z,100093.00
2023-11-07T02:00:16.969Z,100094.67
2023-11-07T02:02:45.985Z,100102.42
2023-11-07T02:05:13.909Z,100100.56
2023-11-07T02:07:41.735Z,100104.25
2023-11-07T02:10:12.657Z,100103.83
2023-11-07T02:12:40.437Z,100107.38
2023-11-07T02:15:24.827Z,100105.38
2023-11-07T02:17:52.537Z,100104.30
2023-11-07T02:20:20.798Z,100102.33
2023-11-07T02:22:50.425Z,100109.17
2023-11-07T02:25:18.400Z,100124.34
2023-11-07T02:27:46.537Z,100128.91
2023-11-07T02:30:15.342Z,100131.42
2023-11-07T02:32:44.710Z,100133.98
2023-11-07T02:35:15.381Z,100137.08
2023-11-07T02:37:43.228Z,100135.02
2023-11-07T02:40:15.196Z,100135.88
2023-11-07T02:42:42.889Z,100138.59
2023-11-07T02:45:11.100Z,100140.58
2023-11-07T02:47:42.295Z,100145.94
2023-11-07T02:50:12.200Z,100147.73
2023-11-07T02:52:40.180Z,100149.71
2023-11-07T02:55:09.051Z,100150.15
2023-11-07T02:57:36.997Z,100154.95
2023-11-07T03:00:06.013Z,100157.61
2023-11-07T03:02:38.529Z,100156.92
2023-11-07T03:05:07.570Z,100165.63
2023-11-07T03:07:36.214Z,100169.31
2023-11-07T03:10:04.621Z,100172.92
2023-11-07T03:12:32.215Z,100173.52
2023-11-07T03:15:00.567Z,100175.87
2023-11-07T03:17:28.265Z,100180.50
2023-11-07T03:19:55.960Z,100180.70
2023-11-07T03:22:28.024Z,100181.98
2023-11-07T03:24:55.795Z,100185.80
2023-11-07T03:27:23.624Z,100188.30
2023-11-07T03:29:51.313Z,100187.00
2023-11-07T03:32:19.777Z,100192.75
2023-11-07T03:34:47.389Z,100192.22
2023-11-07T03:37:15.010Z,100189.80
2023-11-07T03:39:43.051Z,100185.52
2023-11-07T03:42:10.700Z,100190.02
2023-11-07T03:44:38.406Z,100191.33
2023-11-07T03:47:07.156Z,100192.16
2023-11-07T03:49:34.906Z,100197.34
2023-11-07T03:52:02.714Z,100204.89
2023-11-07T03:54:30.644Z,100209.73
2023-11-07T03:56:58.327Z,100208.58
2023-11-07T03:59:25.927Z,100216.24
2023-11-07T04:01:53.949Z,100221.85
2023-11-07T04:04:21.774Z,100221.31
2023-11-07T04:06:52.189Z,100223.16
2023-11-07T04:09:21.151Z,100226.23
2023-11-07T04:11:48.893Z,100230.88
2023-11-07T04:14:19.269Z,100233.55
2023-11-07T04:16:47.079Z,100238.89
2023-11-07T04:19:14.868Z,100243.52
2023-11-07T04:21:43.645Z,100245.27
2023-11-07T04:24:11.975Z,100252.13
2023-11-07T04:26:39.658Z,100256.61
2023-11-07T04:29:07.967Z,100256.53
2023-11-07T04:31:39.419Z,100261.34
2023-11-07T04:34:11.467Z,100263.09
2023-11-07T04:36:44.086Z,100264.58
2023-11-07T04:39:13.844Z,100270.98
2023-11-07T04:41:42.963Z,100276.92
2023-11-07T04:44:12.587Z,100281.13
2023-11-07T04:46:40.522Z,100285.70
2023-11-07T04:49:09.026Z,100289.55
2023-11-07T04:51:37.869Z,100294.84
2023-11-07T04:54:05.665Z,100296.04
2023-11-07T04:56:34.014Z,100297.63
2023-11-07T04:59:02.075Z,100300.42
2023-11-07T05:01:29.968Z,100304.95
2023-11-07T05:03:59.406Z,100309.70
2023-11-07T05:06:27.356Z,100313.06
2023-11-07T05:08:55.134Z,100312.71
2023-11-07T05:11:22.884Z,100313.52
2023-11-07T05:13:50.473Z,100316.33
2023-11-07T05:16:18.148Z,100322.08
2023-11-07T05:18:45.900Z,100328.20
2023-11-07T05:21:13.692Z,100330.91
2023-11-07T05:23:41.348Z,100330.58
2023-11-07T05:26:10.428Z,100334.52
2023-11-07T05:28:38.582Z,100336.64
2023-11-07T05:31:06.799Z,100337.02
2023-11-07T05:33:36.014Z,100340.21
2023-11-07T05:36:04.912Z,100346.13
2023-11-07T05:38:32.536Z,100346.40
2023-11-07T05:41:00.129Z,100348.29
2023-11-07T05:43:27.746Z,100351.30
2023-11-07T05:45:55.373Z,100354.39
2023-11-07T05:48:26.064Z,100348.86
2023-11-07T05:50:53.852Z,100352.23
2023-11-07T05:53:21.544Z,100351.55
2023-11-07T05:55:49.770Z,100355.86
2023-11-07T05:58:18.248Z,100358.53
2023-11-07T06:00:45.911Z,100363.13
2023-11-07T06:03:15.197Z,100364.61
2023-11-07T06:05:46.879Z,100365.68
2023-11-07T06:08:14.872Z,100370.15
2023-11-07T06:10:42.514Z,100374.20
2023-11-07T06:13:10.317Z,100374.94
2023-11-07T06:15:39.237Z,100378.18
2023-11-07T06:18:07.982Z,100375.24
2023-11-07T06:20:35.715Z,100376.29
2023-11-07T06:23:03.401Z,100381.28
2023-11-07T06:25:31.087Z,100381.27
2023-11-07T06:27:59.124Z,100381.71
2023-11-07T06:30:31.284Z,100383.92
2023-11-07T06:32:59.590Z,100382.69
2023-11-07T06:35:27.764Z,100384.24
2023-11-07T06:37:55.561Z,100388.14
2023-11-07T06:40:25.029Z,100389.14
2023-11-07T06:42:54.110Z,100387.67
2023-11-07T06:45:22.059Z,100394.09
2023-11-07T06:47:49.910Z,100391.63
2023-11-07T06:50:17.673Z,100400.09
2023-11-07T06:52:53.782Z,100407.73
2023-11-07T06:55:27.436Z,100408.93
2023-11-07T06:57:57.020Z,100409.23
2023-11-07T07:00:27.081Z,100409.08
2023-11-07T07:02:58.037Z,100406.92
2023-11-07T07:05:27.165Z,100409.52
2023-11-07T07:07:55.973Z,100411.73
2023-11-07T07:10:24.873Z,100413.50
2023-11-07T07:12:52.566Z,100409.86
2023-11-07T07:15:20.299Z,100408.84
2023-11-07T07:17:48.494Z,100413.27
2023-11-07T07:20:17.321Z,100423.95
2023-11-07T07:22:48.478Z,100427.10
2023-11-07T07:25:22.431Z,100430.00
2023-11-07T07:27:50.939Z,100427.29
2023-11-07T07:30:23.457Z,100428.98
2023-11-07T07:32:52.761Z,100429.77
2023-11-07T07:35:24.566Z,100431.80
2023-11-07T07:37:55.183Z,100431.19
2023-11-07T07:40:27.554Z,100430.37
2023-11-07T07:43:00.773Z,100430.13
2023-11-07T07:45:28.507Z,100425.31
2023-11-07T07:47:58.775Z,100429.54
2023-11-07T07:50:26.850Z,100432.44
2023-11-07T07:52:57.696Z,100435.45
2023-11-07T07:55:34.973Z,100439.27
2023-11-07T07:58:04.818Z,100441.33
2023-11-07T08:00:32.970Z,100445.23
2023-11-07T08:03:08.626Z,100447.72
2023-11-07T08:05:42.395Z,100449.42
2023-11-07T08:08:11.260Z,100449.08
2023-11-07T08:10:40.948Z,100445.48
2023-11-07T08:13:11.708Z,100449.33
2023-11-07T08:15:39.815Z,100448.92
2023-11-07T08:18:08.788Z,100445.52
2023-11-07T08:20:39.877Z,100449.55
2023-11-07T08:23:08.274Z,100444.10
2023-11-07T08:25:36.355Z,100446.53
2023-11-07T08:28:11.128Z,100452.06
2023-11-07T08:30:39.754Z,100450.21
2023-11-07T08:33:09.189Z,100449.21
2023-11-07T08:35:40.704Z,100447.89
2023-11-07T08:38:08.871Z,100445.56
2023-11-07T08:40:38.197Z,100449.19
2023-11-07T08:43:05.911Z,100449.82
2023-11-07T08:45:34.575Z,100454.67
2023-11-07T08:48:02.795Z,100456.84
2023-11-07T08:50:30.636Z,100457.21
2023-11-07T08:52:58.852Z,100454.54
2023-11-07T08:55:27.616Z,100446.16
2023-11-07T08:57:55.547Z,100447.71
2023-11-07T09:00:24.152Z,100446.08
2023-11-07T09:02:53.907Z,100448.21
2023-11-07T09:05:23.904Z,100443.86
2023-11-07T09:07:51.962Z,100442.20
2023-11-07T09:10:21.790Z,100444.08
2023-11-07T09:12:49.646Z,100444.40
2023-11-07T09:15:21.663Z,100440.32
2023-11-07T09:17:49.806Z,100437.19
2023-11-07T09:20:18.388Z,100432.17
2023-11-07T09:22:47.357Z,100428.97
2023-11-07T09:25:15.101Z,100429.52
2023-11-07T09:27:43.010Z,100428.50
2023-11-07T09:30:11.876Z,100427.59
2023-11-07T09:32:41.723Z,100429.26
2023-11-07T09:35:09.740Z,100422.59
2023-11-07T09:37:43.859Z,100421.83
2023-11-07T09:40:22.282Z,100417.73
2023-11-07T09:42:52.946Z,100415.17
2023-11-07T09:45:21.174Z,100415.89
2023-11-07T09:47:51.137Z,100418.64
2023-11-07T09:50:21.563Z,100417.13
2023-11-07T09:52:51.341Z,100410.95
2023-11-07T09:55:19.021Z,100413.33
2023-11-07T09:58:15.231Z,100413.87
2023-11-07T10:00:46.439Z,100411.14
2023-11-07T10:03:16.121Z,100409.82
2023-11-07T10:05:48.210Z,100411.60
2023-11-07T10:08:17.793Z,100405.77
2023-11-07T10:11:23.282Z,100404.44
2023-11-07T10:14:02.088Z,100408.35
2023-11-07T10:16:37.705Z,100406.11
2023-11-07T10:19:06.784Z,100402.42
2023-11-07T10:21:36.363Z,100406.44
2023-11-07T10:24:04.460Z,100404.00
2023-11-07T10:26:32.518Z,100403.24
2023-11-07T10:29:18.284Z,100399.84
2023-11-07T10:32:00.913Z,100402.30
2023-11-07T10:34:28.623Z,100393.44
2023-11-07T10:36:56.918Z,100397.39
2023-11-07T10:39:27.034Z,100396.41
2023-11-07T10:41:58.513Z,100395.52
2023-11-07T10:44:30.676Z,100397.92
2023-11-07T10:46:59.913Z,100395.06
2023-11-07T10:49:32.361Z,100394.95
2023-11-07T10:52:04.129Z,100398.33
2023-11-07T10:54:32.126Z,100396.62
2023-11-07T10:57:06.886Z,100396.86
2023-11-07T10:59:36.661Z,100397.77
2023-11-07T11:02:05.456Z,100398.64
2023-11-07T11:04:38.112Z,100395.98
2023-11-07T11:07:08.041Z,100395.73
2023-11-07T11:09:36.749Z,100398.35
2023-11-07T11:12:05.780Z,100397.98
2023-11-07T11:14:33.670Z,100399.89
2023-11-07T11:17:23.051Z,100401.13
2023-11-07T11:20:11.925Z,100400.73
2023-11-07T11:22:47.723Z,100398.58
2023-11-07T11:25:32.601Z,100397.66
2023-11-07T11:28:07.096Z,100397.19
2023-11-07T11:30:39.980Z,100400.19
2023-11-07T11:33:14.439Z,100401.84
2023-11-07T11:35:45.165Z,100405.25
2023-11-07T11:38:18.030Z,100409.33
2023-11-07T11:41:04.258Z,100408.11
2023-11-07T11:43:33.784Z,100412.20
2023-11-07T11:46:16.701Z,100419.52
2023-11-07T11:48:54.560Z,100421.33
2023-11-07T11:51:40.191Z,100420.70
2023-11-07T11:54:13.582Z,100417.52
2023-11-07T11:56:50.909Z,100421.45
2023-11-07T11:59:26.250Z,100419.56
2023-11-07T12:01:56.925Z,100422.35
2023-11-07T12:04:40.456Z,100421.22
2023-11-07T12:07:08.846Z,100420.34
2023-11-07T12:09:52.426Z,100424.77
2023-11-07T12:12:20.405Z,100428.91
2023-11-07T12:14:56.775Z,100434.63
2023-11-07T12:17:30.406Z,100432.73
2023-11-07T12:20:08.164Z,100436.11
2023-11-07T12:22:37.505Z,100435.31
2023-11-07T12:25:15.432Z,100437.76
2023-11-07T12:28:06.001Z,100438.00
2023-11-07T12:30:38.418Z,100442.42
2023-11-07T12:33:13.522Z,100447.51
2023-11-07T12:35:41.300Z,100443.70
2023-11-07T12:38:11.088Z,100445.85
2023-11-07T12:40:41.258Z,100448.20
2023-11-07T12:43:10.340Z,100450.62
2023-11-07T12:45:39.674Z,100452.58
2023-11-07T12:48:12.413Z,100460.85
2023-11-07T12:50:44.991Z,100461.61
2023-11-07T12:53:16.683Z,100463.76
2023-11-07T12:55:52.018Z,100462.98
2023-11-07T12:58:34.486Z,100466.66
2023-11-07T13:01:08.710Z,100466.54
2023-11-07T13:03:38.886Z,100469.55
2023-11-07T13:06:12.056Z,100468.28
2023-11-07T13:08:42.959Z,100472.80
2023-11-07T13:11:17.860Z,100470.41
2023-11-07T13:13:50.811Z,100472.15
2023-11-07T13:16:20.204Z,100476.89
2023-11-07T13:18:50.545Z,100474.66
2023-11-07T13:21:18.752Z,100477.73
2023-11-07T13:23:46.693Z,100473.67
2023-11-07T13:26:15.775Z,100479.06
2023-11-07T13:28:44.971Z,100483.18
2023-11-07T13:31:14.696Z,100484.69
2023-11-07T13:33:47.307Z,100485.58
2023-11-07T13:36:16.849Z,100486.45
2023-11-07T13:38:49.116Z,100491.73
2023-11-07T13:41:17.691Z,100495.05
2023-11-07T13:43:45.477Z,100495.05
2023-11-07T13:46:19.464Z,100497.66
2023-11-07T13:48:52.037Z,100501.02
2023-11-07T13:51:22.406Z,100499.21
2023-11-07T13:53:52.522Z,100502.45
2023-11-07T13:56:20.713Z,100504.60
2023-11-07T13:58:49.072Z,100501.93
2023-11-07T14:01:16.929Z,100504.98
2023-11-07T14:03:45.776Z,100502.23
2023-11-07T14:06:14.157Z,100509.21
2023-11-07T14:08:42.379Z,100506.14
2023-11-07T14:11:11.507Z,100510.10
2023-11-07T14:13:39.201Z,100510.25
2023-11-07T14:16:07.085Z,100512.24
2023-11-07T14:18:35.014Z,100512.94
2023-11-07T14:21:04.307Z,100517.28
2023-11-07T14:23:32.142Z,100518.80
2023-11-07T14:25:59.951Z,100524.15
2023-11-07T14:28:28.111Z,100523.20
2023-11-07T14:30:58.733Z,100526.36
2023-11-07T14:33:30.023Z,100523.39
2023-11-07T14:35:59.902Z,100527.18
2023-11-07T14:38:35.322Z,100533.39
2023-11-07T14:41:08.869Z,100536.36
2023-11-07T14:43:37.305Z,100544.08
2023-11-07T14:46:06.945Z,100542.81
2023-11-07T14:48:35.568Z,100545.85
2023-11-07T14:51:03.715Z,100546.23
2023-11-07T14:53:31.472Z,100549.35
2023-11-07T14:55:59.368Z,100549.69
2023-11-07T14:58:27.974Z,100554.36
2023-11-07T15:00:58.217Z,100555.98
2023-11-07T15:03:26.417Z,100558.89
2023-11-07T15:05:55.496Z,100562.73
2023-11-07T15:08:23.673Z,100560.16
2023-11-07T15:10:51.581Z,100564.14
2023-11-07T15:13:19.700Z,100565.81
2023-11-07T15:15:47.933Z,100569.58
2023-11-07T15:18:15.788Z,100571.08
2023-11-07T15:20:44.082Z,100576.34
2023-11-07T15:23:11.884Z,100581.79
2023-11-07T15:25:41.149Z,100580.34
2023-11-07T15:28:09.348Z,100579.61
2023-11-07T15:30:37.241Z,100578.51
2023-11-07T15:33:05.315Z,100578.63
2023-11-07T15:35:38.073Z,100572.90
2023-11-07T15:38:09.750Z,100576.63
2023-11-07T15:40:40.859Z,100580.52
2023-11-07T15:43:10.071Z,100577.10
2023-11-07T15:45:38.294Z,100581.88
2023-11-07T15:48:09.564Z,100588.07
2023-11-07T15:50:38.988Z,100592.86
2023-11-07T15:53:08.936Z,100598.59
2023-11-07T15:55:40.052Z,100601.27
2023-11-07T15:58:08.842Z,100603.95
2023-11-07T16:00:36.879Z,100608.58
2023-11-07T16:03:06.014Z,100609.45
2023-11-07T16:05:36.873Z,100608.00
2023-11-07T16:08:10.344Z,100607.74
2023-11-07T16:10:38.162Z,100606.91
2023-11-07T16:13:06.190Z,100610.83
2023-11-07T16:15:34.805Z,100612.70
2023-11-07T16:18:03.490Z,100617.41
2023-11-07T16:20:31.713Z,100616.28
2023-11-07T16:22:59.454Z,100622.33
2023-11-07T16:25:27.648Z,100625.89
2023-11-07T16:27:56.364Z,100627.06
2023-11-07T16:30:24.196Z,100627.29
2023-11-07T16:32:52.333Z,100625.13
2023-11-07T16:35:20.316Z,100628.29
2023-11-07T16:37:48.036Z,100627.32
2023-11-07T16:40:17.969Z,100627.27
2023-11-07T16:42:45.674Z,100627.05
2023-11-07T16:45:16.022Z,100626.63
2023-11-07T16:47:45.051Z,100626.71
2023-11-07T16:50:16.807Z,100624.00
2023-11-07T16:52:44.877Z,100624.85
2023-11-07T16:55:15.280Z,100621.49
2023-11-07T16:57:46.154Z,100624.91
2023-11-07T17:00:20.084Z,100629.20
2023-11-07T17:02:49.319Z,100634.89
2023-11-07T17:05:18.253Z,100638.37
2023-11-07T17:07:46.843Z,100641.58
2023-11-07T17:10:14.772Z,100642.39
2023-11-07T17:12:42.416Z,100649.17
2023-11-07T17:15:13.474Z,100647.38
2023-11-07T17:17:41.819Z,100645.27
2023-11-07T17:20:09.977Z,100643.54
2023-11-07T17:22:39.018Z,100641.29
2023-11-07T17:25:08.111Z,100637.61
2023-11-07T17:27:36.548Z,100637.02
2023-11-07T17:30:04.884Z,100638.40
2023-11-07T17:32:32.704Z,100636.11
2023-11-07T17:35:05.373Z,100642.04
2023-11-07T17:37:34.430Z,100643.92
2023-11-07T17:40:02.158Z,100643.17
2023-11-07T17:42:29.948Z,100646.65
2023-11-07T17:44:57.728Z,100642.36
2023-11-07T17:47:27.107Z,100645.34
2023-11-07T17:49:55.032Z,100650.41
2023-11-07T17:52:22.657Z,100651.41
2023-11-07T17:54:51.300Z,100655.60
2023-11-07T17:57:19.226Z,100657.33
2023-11-07T17:59:53.069Z,100665.48
2023-11-07T18:02:22.353Z,100668.06
2023-11-07T18:04:53.853Z,100668.31
2023-11-07T18:07:21.638Z,100669.54
2023-11-07T18:09:51.036Z,100667.42
2023-11-07T18:12:21.111Z,100669.59
2023-11-07T18:14:49.153Z,100669.14
2023-11-07T18:17:17.161Z,100675.36
2023-11-07T18:19:44.816Z,100677.31
2023-11-07T18:22:13.382Z,100680.48
2023-11-07T18:24:41.268Z,100681.09
2023-11-07T18:27:09.149Z,100688.55
2023-11-07T18:29:38.102Z,100689.00
2023-11-07T18:32:08.396Z,100693.92
2023-11-07T18:34:36.685Z,100694.22
2023-11-07T18:37:06.227Z,100696.32
2023-11-07T18:39:37.114Z,100696.15
2023-11-07T18:42:06.082Z,100701.70
2023-11-07T18:44:38.547Z,100702.52
2023-11-07T18:47:06.545Z,100703.77
2023-11-07T18:49:35.064Z,100707.35
2023-11-07T18:52:04.292Z,100709.92
2023-11-07T18:54:32.178Z,100712.98
2023-11-07T18:57:00.003Z,100715.17
2023-11-07T18:59:34.546Z,100713.94
2023-11-07T19:02:07.134Z,100717.84
2023-11-07T19:04:38.203Z,100720.21
2023-11-07T19:07:08.668Z,100719.95
2023-11-07T19:09:36.718Z,100724.96
2023-11-07T19:12:04.864Z,100729.42
2023-11-07T19:14:32.631Z,100736.56
2023-11-07T19:17:00.224Z,100735.60
2023-11-07T19:19:28.612Z,100732.77
2023-11-07T19:21:59.463Z,100736.41
2023-11-07T19:24:27.583Z,100739.98
2023-11-07T19:26:55.604Z,100742.13
2023-11-07T19:29:24.117Z,100742.86
2023-11-07T19:31:53.780Z,100738.04
2023-11-07T19:34:26.138Z,100739.23
2023-11-07T19:36:57.188Z,100738.42
2023-11-07T19:39:26.284Z,100734.58
2023-11-07T19:41:57.527Z,100732.38
2023-11-07T19:44:25.150Z,100732.70
2023-11-07T19:46:53.283Z,100732.00
2023-11-07T19:49:21.082Z,100730.15
2023-11-07T19:51:49.041Z,100730.05
2023-11-07T19:54:17.278Z,100728.05
2023-11-07T19:56:45.375Z,100735.73
2023-11-07T19:59:13.561Z,100741.24
2023-11-07T20:01:41.517Z,100741.34
2023-11-07T20:04:09.901Z,100740.28
2023-11-07T20:06:37.968Z,100740.40
2023-11-07T20:09:06.460Z,100739.26
2023-11-07T20:11:36.377Z,100736.99
2023-11-07T20:14:04.408Z,100735.40
2023-11-07T20:16:32.097Z,100731.33
2023-11-07T20:18:59.848Z,100727.74
2023-11-07T20:21:27.760Z,100732.07
2023-11-07T20:23:55.437Z,100734.81
2023-11-07T20:26:23.164Z,100740.21
2023-11-07T20:28:51.242Z,100743.25
2023-11-07T20:31:20.112Z,100741.16
2023-11-07T20:33:50.213Z,100744.02
2023-11-07T20:36:20.112Z,100749.27
2023-11-07T20:38:49.256Z,100750.73
2023-11-07T20:41:17.793Z,100756.22
2023-11-07T20:43:47.745Z,100754.77
2023-11-07T20:48:52.961Z,100748.34
2023-11-07T20:51:20.978Z,100744.48
2023-11-07T20:53:48.841Z,100740.77
2023-11-07T20:56:17.039Z,100739.28
2023-11-07T20:58:44.766Z,100738.96
2023-11-07T21:01:13.550Z,100735.64
2023-11-07T21:03:41.702Z,100737.14
2023-11-07T21:06:09.569Z,100736.38
2023-11-07T21:08:37.965Z,100737.15
2023-11-07T21:11:05.676Z,100738.64
2023-11-07T21:13:33.349Z,100735.61
2023-11-07T21:16:00.983Z,100736.77
2023-11-07T21:18:30.621Z,100732.55
2023-11-07T21:21:01.374Z,100732.80
2023-11-07T21:23:28.965Z,100738.71
2023-11-07T21:25:56.548Z,100741.78
2023-11-07T21:28:24.417Z,100748.96
2023-11-07T21:30:52.482Z,100754.59
2023-11-07T21:33:21.370Z,100758.48
2023-11-07T21:35:49.726Z,100756.94
2023-11-07T21:38:17.314Z,100760.60
2023-11-07T21:40:45.230Z,100762.63
2023-11-07T21:43:12.894Z,100763.70
2023-11-07T21:45:40.557Z,100766.16
2023-11-07T21:48:08.413Z,100768.53
2023-11-07T21:50:36.947Z,100768.23
2023-11-07T21:53:04.606Z,100767.40
2023-11-07T21:55:32.211Z,100768.55
2023-11-07T21:57:59.879Z,100771.31
2023-11-07T22:00:27.509Z,100764.58
2023-11-07T22:02:55.637Z,100759.94
2023-11-07T22:05:23.824Z,100757.30
2023-11-07T22:07:51.443Z,100760.65
2023-11-07T22:10:19.416Z,100758.29
2023-11-07T22:12:47.425Z,100756.80
2023-11-07T22:15:15.133Z,100759.92
2023-11-07T22:17:43.834Z,100761.47
2023-11-07T22:20:15.476Z,100758.88
2023-11-07T22:22:44.308Z,100759.55
2023-11-07T22:25:14.854Z,100760.11
2023-11-07T22:27:43.223Z,100763.02
2023-11-07T22:30:11.334Z,100764.07
2023-11-07T22:32:42.095Z,100761.48
2023-11-07T22:35:10.438Z,100764.19
2023-11-07T22:37:38.955Z,100761.05
2023-11-07T22:40:07.320Z,100764.09
2023-11-07T22:42:38.343Z,100763.92
2023-11-07T22:45:07.868Z,100763.96
2023-11-07T22:47:35.663Z,100765.50
2023-11-07T22:50:07.297Z,100762.78
2023-11-07T22:52:35.244Z,100763.27
2023-11-07T22:55:03.502Z,100767.20
2023-11-07T22:57:31.273Z,100771.39
2023-11-07T22:59:58.961Z,100771.29
2023-11-07T23:02:27.512Z,100767.10
2023-11-07T23:04:55.201Z,100763.59
2023-11-07T23:07:22.912Z,100762.45
2023-11-07T23:09:50.690Z,100764.50
2023-11-07T23:12:18.573Z,100771.66
2023-11-07T23:14:46.949Z,100771.73
2023-11-07T23:17:15.004Z,100777.22
2023-11-07T23:19:46.053Z,100775.66
2023-11-07T23:22:13.853Z,100770.89
2023-11-07T23:24:44.944Z,100774.85
2023-11-07T23:27:15.663Z,100777.14
2023-11-07T23:29:46.338Z,100778.52
2023-11-07T23:32:13.955Z,100774.41
2023-11-07T23:34:41.836Z,100772.58
2023-11-07T23:37:10.796Z,100766.79
2023-11-07T23:39:38.487Z,100764.90
2023-11-07T23:42:06.647Z,100762.96
2023-11-07T23:44:34.611Z,100755.21
2023-11-07T23:47:02.328Z,100756.33
2023-11-07T23:49:30.011Z,100748.66
2023-11-07T23:51:57.696Z,100749.84
2023-11-07T23:54:25.293Z,100753.47
2023-11-07T23:56:53.691Z,100753.55
2023-11-07T23:59:21.384Z,100752.36
